sensor_id;sensor_type;location;lat;lon;timestamp;temperature;humidity
14733;DHT22;7457;50.960;6.830;2023-07-29T00:02:18;19.00;97.70
14733;DHT22;7457;50.960;6.830;2023-07-29T00:04:43;19.00;97.70
14733;DHT22;7457;50.960;6.830;2023-07-29T00:07:09;19.00;97.70
14733;DHT22;7457;50.960;6.830;2023-07-29T00:09:34;18.90;97.80
14733;DHT22;7457;50.960;6.830;2023-07-29T00:12:00;18.90;97.80
14733;DHT22;7457;50.960;6.830;2023-07-29T00:14:26;18.90;97.90
14733;DHT22;7457;50.960;6.830;2023-07-29T00:16:51;18.90;98.10
14733;DHT22;7457;50.960;6.830;2023-07-29T00:19:17;18.90;98.00
14733;DHT22;7457;50.960;6.830;2023-07-29T00:21:43;18.90;98.10
14733;DHT22;7457;50.960;6.830;2023-07-29T00:24:08;18.90;98.20
14733;DHT22;7457;50.960;6.830;2023-07-29T00:26:34;18.90;98.20
14733;DHT22;7457;50.960;6.830;2023-07-29T00:28:59;18.80;98.40
14733;DHT22;7457;50.960;6.830;2023-07-29T00:31:25;18.80;98.40
14733;DHT22;7457;50.960;6.830;2023-07-29T00:33:51;18.80;98.50
14733;DHT22;7457;50.960;6.830;2023-07-29T00:36:18;18.80;98.50
14733;DHT22;7457;50.960;6.830;2023-07-29T00:38:44;18.80;98.70
14733;DHT22;7457;50.960;6.830;2023-07-29T00:41:10;18.80;98.80
14733;DHT22;7457;50.960;6.830;2023-07-29T00:43:38;18.80;99.00
14733;DHT22;7457;50.960;6.830;2023-07-29T00:46:04;18.80;99.10
14733;DHT22;7457;50.960;6.830;2023-07-29T00:48:30;18.80;99.20
14733;DHT22;7457;50.960;6.830;2023-07-29T00:50:57;18.80;99.20
14733;DHT22;7457;50.960;6.830;2023-07-29T00:53:22;18.80;99.20
14733;DHT22;7457;50.960;6.830;2023-07-29T00:55:48;18.80;99.20
14733;DHT22;7457;50.960;6.830;2023-07-29T00:58:14;18.80;99.30
14733;DHT22;7457;50.960;6.830;2023-07-29T01:00:40;18.80;99.30
14733;DHT22;7457;50.960;6.830;2023-07-29T01:03:06;18.80;99.40
14733;DHT22;7457;50.960;6.830;2023-07-29T01:05:39;18.70;99.50
14733;DHT22;7457;50.960;6.830;2023-07-29T01:08:21;18.70;99.50
14733;DHT22;7457;50.960;6.830;2023-07-29T01:11:51;18.70;99.60
14733;DHT22;7457;50.960;6.830;2023-07-29T01:13:52;18.70;99.60
14733;DHT22;7457;50.960;6.830;2023-07-29T01:16:44;18.70;99.70
14733;DHT22;7457;50.960;6.830;2023-07-29T01:22:02;18.60;99.80
14733;DHT22;7457;50.960;6.830;2023-07-29T01:24:28;18.60;99.90
14733;DHT22;7457;50.960;6.830;2023-07-29T01:26:54;18.60;100.00
14733;DHT22;7457;50.960;6.830;2023-07-29T01:29:20;18.60;100.00
14733;DHT22;7457;50.960;6.830;2023-07-29T01:31:47;18.60;100.00
14733;DHT22;7457;50.960;6.830;2023-07-29T01:34:24;18.60;100.00
14733;DHT22;7457;50.960;6.830;2023-07-29T01:36:52;18.60;100.00
14733;DHT22;7457;50.960;6.830;2023-07-29T01:39:21;18.60;100.00
14733;DHT22;7457;50.960;6.830;2023-07-29T01:41:48;18.60;100.00
14733;DHT22;7457;50.960;6.830;2023-07-29T01:44:14;18.60;100.00
14733;DHT22;7457;50.960;6.830;2023-07-29T01:46:40;18.60;100.00
14733;DHT22;7457;50.960;6.830;2023-07-29T01:49:06;18.60;100.00
14733;DHT22;7457;50.960;6.830;2023-07-29T01:51:31;18.70;100.00
14733;DHT22;7457;50.960;6.830;2023-07-29T01:53:57;18.70;100.00
14733;DHT22;7457;50.960;6.830;2023-07-29T01:56:24;18.70;100.00
14733;DHT22;7457;50.960;6.830;2023-07-29T01:58:50;18.70;100.00
14733;DHT22;7457;50.960;6.830;2023-07-29T02:01:15;18.70;100.00
14733;DHT22;7457;50.960;6.830;2023-07-29T02:03:41;18.70;100.00
14733;DHT22;7457;50.960;6.830;2023-07-29T02:06:06;18.60;100.00
14733;DHT22;7457;50.960;6.830;2023-07-29T02:08:32;18.60;100.00
14733;DHT22;7457;50.960;6.830;2023-07-29T02:10:58;18.60;100.00
14733;DHT22;7457;50.960;6.830;2023-07-29T02:13:23;18.60;100.00
14733;DHT22;7457;50.960;6.830;2023-07-29T02:15:49;18.60;100.00
14733;DHT22;7457;50.960;6.830;2023-07-29T02:18:15;18.60;100.00
14733;DHT22;7457;50.960;6.830;2023-07-29T02:20:40;18.50;100.00
14733;DHT22;7457;50.960;6.830;2023-07-29T02:23:07;18.50;100.00
14733;DHT22;7457;50.960;6.830;2023-07-29T02:25:35;18.50;100.00
14733;DHT22;7457;50.960;6.830;2023-07-29T02:28:02;18.50;100.00
14733;DHT22;7457;50.960;6.830;2023-07-29T02:30:28;18.50;100.00
14733;DHT22;7457;50.960;6.830;2023-07-29T02:32:54;18.50;100.00
14733;DHT22;7457;50.960;6.830;2023-07-29T02:35:20;18.50;100.00
14733;DHT22;7457;50.960;6.830;2023-07-29T02:37:45;18.50;100.00
14733;DHT22;7457;50.960;6.830;2023-07-29T02:40:11;18.50;100.00
14733;DHT22;7457;50.960;6.830;2023-07-29T02:42:37;18.50;100.00
14733;DHT22;7457;50.960;6.830;2023-07-29T02:45:04;18.50;100.00
14733;DHT22;7457;50.960;6.830;2023-07-29T02:47:29;18.50;100.00
14733;DHT22;7457;50.960;6.830;2023-07-29T02:49:55;18.50;100.00
14733;DHT22;7457;50.960;6.830;2023-07-29T02:52:20;18.50;100.00
14733;DHT22;7457;50.960;6.830;2023-07-29T02:54:46;18.50;100.00
14733;DHT22;7457;50.960;6.830;2023-07-29T02:57:13;18.50;100.00
14733;DHT22;7457;50.960;6.830;2023-07-29T02:59:39;18.50;100.00
14733;DHT22;7457;50.960;6.830;2023-07-29T03:02:04;18.50;100.00
14733;DHT22;7457;50.960;6.830;2023-07-29T03:04:30;18.50;100.00
14733;DHT22;7457;50.960;6.830;2023-07-29T03:06:56;18.50;100.00
14733;DHT22;7457;50.960;6.830;2023-07-29T03:09:21;18.50;100.00
14733;DHT22;7457;50.960;6.830;2023-07-29T03:11:47;18.50;100.00
14733;DHT22;7457;50.960;6.830;2023-07-29T03:14:12;18.50;100.00
14733;DHT22;7457;50.960;6.830;2023-07-29T03:16:38;18.40;100.00
14733;DHT22;7457;50.960;6.830;2023-07-29T03:19:04;18.40;100.00
14733;DHT22;7457;50.960;6.830;2023-07-29T03:21:31;18.40;100.00
14733;DHT22;7457;50.960;6.830;2023-07-29T03:23:57;18.40;100.00
14733;DHT22;7457;50.960;6.830;2023-07-29T03:26:22;18.40;100.00
14733;DHT22;7457;50.960;6.830;2023-07-29T03:28:48;18.40;100.00
14733;DHT22;7457;50.960;6.830;2023-07-29T03:31:14;18.40;100.00
14733;DHT22;7457;50.960;6.830;2023-07-29T03:33:39;18.30;100.00
14733;DHT22;7457;50.960;6.830;2023-07-29T03:36:05;18.30;100.00
14733;DHT22;7457;50.960;6.830;2023-07-29T03:38:30;18.30;100.00
14733;DHT22;7457;50.960;6.830;2023-07-29T03:40:58;18.30;100.00
14733;DHT22;7457;50.960;6.830;2023-07-29T03:43:24;18.30;100.00
14733;DHT22;7457;50.960;6.830;2023-07-29T03:45:49;18.30;100.00
14733;DHT22;7457;50.960;6.830;2023-07-29T03:48:15;18.30;100.00
14733;DHT22;7457;50.960;6.830;2023-07-29T03:50:40;18.30;100.00
14733;DHT22;7457;50.960;6.830;2023-07-29T03:53:06;18.30;100.00
14733;DHT22;7457;50.960;6.830;2023-07-29T03:55:32;18.30;100.00
14733;DHT22;7457;50.960;6.830;2023-07-29T03:57:59;18.20;100.00
14733;DHT22;7457;50.960;6.830;2023-07-29T04:00:25;18.20;100.00
14733;DHT22;7457;50.960;6.830;2023-07-29T04:02:51;18.20;100.00
14733;DHT22;7457;50.960;6.830;2023-07-29T04:05:17;18.20;100.00
14733;DHT22;7457;50.960;6.830;2023-07-29T04:07:42;18.20;100.00
14733;DHT22;7457;50.960;6.830;2023-07-29T04:10:08;18.20;100.00
14733;DHT22;7457;50.960;6.830;2023-07-29T04:12:34;18.10;100.00
14733;DHT22;7457;50.960;6.830;2023-07-29T04:15:00;18.10;100.00
14733;DHT22;7457;50.960;6.830;2023-07-29T04:17:25;18.10;100.00
14733;DHT22;7457;50.960;6.830;2023-07-29T04:19:51;18.10;100.00
14733;DHT22;7457;50.960;6.830;2023-07-29T04:22:17;18.00;100.00
14733;DHT22;7457;50.960;6.830;2023-07-29T04:24:42;18.00;100.00
14733;DHT22;7457;50.960;6.830;2023-07-29T04:27:08;18.00;100.00
14733;DHT22;7457;50.960;6.830;2023-07-29T04:29:34;18.00;100.00
14733;DHT22;7457;50.960;6.830;2023-07-29T04:32:04;18.00;100.00
14733;DHT22;7457;50.960;6.830;2023-07-29T04:34:31;18.00;100.00
14733;DHT22;7457;50.960;6.830;2023-07-29T04:36:57;18.00;100.00
14733;DHT22;7457;50.960;6.830;2023-07-29T04:39:22;17.90;100.00
14733;DHT22;7457;50.960;6.830;2023-07-29T04:41:48;17.90;100.00
14733;DHT22;7457;50.960;6.830;2023-07-29T04:44:13;17.90;100.00
14733;DHT22;7457;50.960;6.830;2023-07-29T04:46:39;17.90;100.00
14733;DHT22;7457;50.960;6.830;2023-07-29T04:49:05;17.90;100.00
14733;DHT22;7457;50.960;6.830;2023-07-29T04:51:30;18.00;100.00
14733;DHT22;7457;50.960;6.830;2023-07-29T04:53:57;18.00;100.00
14733;DHT22;7457;50.960;6.830;2023-07-29T04:56:23;18.00;100.00
14733;DHT22;7457;50.960;6.830;2023-07-29T04:58:49;18.10;100.00
14733;DHT22;7457;50.960;6.830;2023-07-29T05:01:15;18.10;100.00
14733;DHT22;7457;50.960;6.830;2023-07-29T05:03:40;18.10;100.00
14733;DHT22;7457;50.960;6.830;2023-07-29T05:06:06;18.10;100.00
14733;DHT22;7457;50.960;6.830;2023-07-29T05:08:32;18.20;100.00
14733;DHT22;7457;50.960;6.830;2023-07-29T05:10:57;18.20;100.00
14733;DHT22;7457;50.960;6.830;2023-07-29T05:13:23;18.20;100.00
14733;DHT22;7457;50.960;6.830;2023-07-29T05:15:49;18.20;100.00
14733;DHT22;7457;50.960;6.830;2023-07-29T05:18:16;18.20;100.00
14733;DHT22;7457;50.960;6.830;2023-07-29T05:20:42;18.20;100.00
14733;DHT22;7457;50.960;6.830;2023-07-29T05:23:08;18.30;100.00
14733;DHT22;7457;50.960;6.830;2023-07-29T05:25:33;18.30;100.00
14733;DHT22;7457;50.960;6.830;2023-07-29T05:28:02;18.30;100.00
14733;DHT22;7457;50.960;6.830;2023-07-29T05:30:29;18.30;100.00
14733;DHT22;7457;50.960;6.830;2023-07-29T05:32:59;18.40;100.00
14733;DHT22;7457;50.960;6.830;2023-07-29T05:35:25;18.40;100.00
14733;DHT22;7457;50.960;6.830;2023-07-29T05:37:51;18.40;100.00
14733;DHT22;7457;50.960;6.830;2023-07-29T05:40:16;18.40;100.00
14733;DHT22;7457;50.960;6.830;2023-07-29T05:42:42;18.40;100.00
14733;DHT22;7457;50.960;6.830;2023-07-29T05:45:09;18.30;100.00
14733;DHT22;7457;50.960;6.830;2023-07-29T05:47:35;18.30;100.00
14733;DHT22;7457;50.960;6.830;2023-07-29T05:50:00;18.40;100.00
14733;DHT22;7457;50.960;6.830;2023-07-29T05:52:30;18.40;100.00
14733;DHT22;7457;50.960;6.830;2023-07-29T05:54:55;18.40;100.00
14733;DHT22;7457;50.960;6.830;2023-07-29T05:57:21;18.50;100.00
14733;DHT22;7457;50.960;6.830;2023-07-29T05:59:47;18.50;100.00
14733;DHT22;7457;50.960;6.830;2023-07-29T06:02:12;18.60;100.00
14733;DHT22;7457;50.960;6.830;2023-07-29T06:04:38;18.60;100.00
14733;DHT22;7457;50.960;6.830;2023-07-29T06:07:04;18.60;100.00
14733;DHT22;7457;50.960;6.830;2023-07-29T06:09:30;18.60;100.00
14733;DHT22;7457;50.960;6.830;2023-07-29T06:11:55;18.70;100.00
14733;DHT22;7457;50.960;6.830;2023-07-29T06:14:21;18.70;100.00
14733;DHT22;7457;50.960;6.830;2023-07-29T06:16:46;18.70;100.00
14733;DHT22;7457;50.960;6.830;2023-07-29T06:19:12;18.70;100.00
14733;DHT22;7457;50.960;6.830;2023-07-29T06:21:38;18.70;100.00
14733;DHT22;7457;50.960;6.830;2023-07-29T06:24:04;18.70;100.00
14733;DHT22;7457;50.960;6.830;2023-07-29T06:26:30;18.70;100.00
14733;DHT22;7457;50.960;6.830;2023-07-29T06:28:55;18.60;100.00
14733;DHT22;7457;50.960;6.830;2023-07-29T06:31:21;18.70;100.00
14733;DHT22;7457;50.960;6.830;2023-07-29T06:33:46;18.70;100.00
14733;DHT22;7457;50.960;6.830;2023-07-29T06:36:12;18.70;100.00
14733;DHT22;7457;50.960;6.830;2023-07-29T06:38:38;18.80;100.00
14733;DHT22;7457;50.960;6.830;2023-07-29T06:41:04;18.80;100.00
14733;DHT22;7457;50.960;6.830;2023-07-29T06:43:30;18.80;100.00
14733;DHT22;7457;50.960;6.830;2023-07-29T06:45:56;18.80;100.00
14733;DHT22;7457;50.960;6.830;2023-07-29T06:48:22;18.80;100.00
14733;DHT22;7457;50.960;6.830;2023-07-29T06:50:47;18.90;100.00
14733;DHT22;7457;50.960;6.830;2023-07-29T06:53:13;18.90;100.00
14733;DHT22;7457;50.960;6.830;2023-07-29T06:55:38;19.00;100.00
14733;DHT22;7457;50.960;6.830;2023-07-29T06:58:04;19.20;100.00
14733;DHT22;7457;50.960;6.830;2023-07-29T07:00:30;19.30;100.00
14733;DHT22;7457;50.960;6.830;2023-07-29T07:02:56;19.40;100.00
14733;DHT22;7457;50.960;6.830;2023-07-29T07:05:21;19.60;99.40
14733;DHT22;7457;50.960;6.830;2023-07-29T07:07:47;19.80;98.90
14733;DHT22;7457;50.960;6.830;2023-07-29T07:10:14;19.80;98.20
14733;DHT22;7457;50.960;6.830;2023-07-29T07:12:39;20.00;98.00
14733;DHT22;7457;50.960;6.830;2023-07-29T07:15:05;20.00;97.10
14733;DHT22;7457;50.960;6.830;2023-07-29T07:17:31;20.10;97.20
14733;DHT22;7457;50.960;6.830;2023-07-29T07:19:57;20.20;96.60
14733;DHT22;7457;50.960;6.830;2023-07-29T07:22:22;20.30;95.50
14733;DHT22;7457;50.960;6.830;2023-07-29T07:24:49;20.20;95.00
14733;DHT22;7457;50.960;6.830;2023-07-29T07:27:14;20.20;95.20
14733;DHT22;7457;50.960;6.830;2023-07-29T07:29:40;20.20;95.30
14733;DHT22;7457;50.960;6.830;2023-07-29T07:32:06;20.30;95.20
14733;DHT22;7457;50.960;6.830;2023-07-29T07:34:31;20.40;94.90
14733;DHT22;7457;50.960;6.830;2023-07-29T07:36:58;20.50;94.50
14733;DHT22;7457;50.960;6.830;2023-07-29T07:39:24;20.60;93.40
14733;DHT22;7457;50.960;6.830;2023-07-29T07:41:49;20.60;92.50
14733;DHT22;7457;50.960;6.830;2023-07-29T07:44:15;20.50;91.50
14733;DHT22;7457;50.960;6.830;2023-07-29T07:46:43;20.40;91.50
14733;DHT22;7457;50.960;6.830;2023-07-29T07:49:09;20.30;91.90
14733;DHT22;7457;50.960;6.830;2023-07-29T07:51:34;20.20;92.10
14733;DHT22;7457;50.960;6.830;2023-07-29T07:54:00;20.20;92.30
14733;DHT22;7457;50.960;6.830;2023-07-29T07:56:26;20.20;92.40
14733;DHT22;7457;50.960;6.830;2023-07-29T07:58:51;20.30;92.50
14733;DHT22;7457;50.960;6.830;2023-07-29T08:01:17;20.40;92.50
14733;DHT22;7457;50.960;6.830;2023-07-29T08:03:43;20.60;92.70
14733;DHT22;7457;50.960;6.830;2023-07-29T08:06:08;20.70;91.90
14733;DHT22;7457;50.960;6.830;2023-07-29T08:08:34;20.90;91.70
14733;DHT22;7457;50.960;6.830;2023-07-29T08:11:00;21.00;91.00
14733;DHT22;7457;50.960;6.830;2023-07-29T08:13:26;21.10;89.30
14733;DHT22;7457;50.960;6.830;2023-07-29T08:15:52;21.10;90.20
14733;DHT22;7457;50.960;6.830;2023-07-29T08:18:19;21.20;90.00
14733;DHT22;7457;50.960;6.830;2023-07-29T08:20:58;21.40;89.40
14733;DHT22;7457;50.960;6.830;2023-07-29T08:23:25;21.50;88.40
14733;DHT22;7457;50.960;6.830;2023-07-29T08:25:53;21.60;88.50
14733;DHT22;7457;50.960;6.830;2023-07-29T08:28:19;21.90;88.90
14733;DHT22;7457;50.960;6.830;2023-07-29T08:30:45;22.10;87.10
14733;DHT22;7457;50.960;6.830;2023-07-29T08:33:11;22.10;86.40
14733;DHT22;7457;50.960;6.830;2023-07-29T08:35:36;22.20;85.70
14733;DHT22;7457;50.960;6.830;2023-07-29T08:38:02;22.20;84.60
14733;DHT22;7457;50.960;6.830;2023-07-29T08:40:29;22.10;83.90
14733;DHT22;7457;50.960;6.830;2023-07-29T08:42:58;22.00;82.30
14733;DHT22;7457;50.960;6.830;2023-07-29T08:45:27;21.80;81.70
14733;DHT22;7457;50.960;6.830;2023-07-29T08:47:54;21.60;81.40
14733;DHT22;7457;50.960;6.830;2023-07-29T08:50:22;21.50;81.90
14733;DHT22;7457;50.960;6.830;2023-07-29T08:52:51;21.30;82.20
14733;DHT22;7457;50.960;6.830;2023-07-29T08:55:18;21.30;82.30
14733;DHT22;7457;50.960;6.830;2023-07-29T08:57:44;21.30;82.20
14733;DHT22;7457;50.960;6.830;2023-07-29T09:00:10;21.30;82.30
14733;DHT22;7457;50.960;6.830;2023-07-29T09:02:36;21.30;82.00
14733;DHT22;7457;50.960;6.830;2023-07-29T09:05:02;21.20;81.40
14733;DHT22;7457;50.960;6.830;2023-07-29T09:07:29;21.10;81.40
14733;DHT22;7457;50.960;6.830;2023-07-29T09:09:54;21.00;81.80
14733;DHT22;7457;50.960;6.830;2023-07-29T09:12:20;20.90;82.10
14733;DHT22;7457;50.960;6.830;2023-07-29T09:14:46;20.90;82.90
14733;DHT22;7457;50.960;6.830;2023-07-29T09:17:12;20.90;83.20
14733;DHT22;7457;50.960;6.830;2023-07-29T09:19:39;21.00;82.70
14733;DHT22;7457;50.960;6.830;2023-07-29T09:22:05;21.00;82.60
14733;DHT22;7457;50.960;6.830;2023-07-29T09:24:42;21.00;82.40
14733;DHT22;7457;50.960;6.830;2023-07-29T09:27:07;21.10;83.10
14733;DHT22;7457;50.960;6.830;2023-07-29T09:29:36;21.40;83.80
14733;DHT22;7457;50.960;6.830;2023-07-29T09:32:21;21.50;82.90
14733;DHT22;7457;50.960;6.830;2023-07-29T09:34:47;21.80;81.20
14733;DHT22;7457;50.960;6.830;2023-07-29T09:37:23;21.90;80.70
14733;DHT22;7457;50.960;6.830;2023-07-29T09:39:49;22.00;80.20
14733;DHT22;7457;50.960;6.830;2023-07-29T09:42:22;22.00;80.70
14733;DHT22;7457;50.960;6.830;2023-07-29T09:44:49;22.20;81.30
14733;DHT22;7457;50.960;6.830;2023-07-29T09:47:22;22.40;79.90
14733;DHT22;7457;50.960;6.830;2023-07-29T09:49:49;22.50;79.30
14733;DHT22;7457;50.960;6.830;2023-07-29T09:52:19;22.50;78.80
14733;DHT22;7457;50.960;6.830;2023-07-29T09:54:45;22.40;79.30
14733;DHT22;7457;50.960;6.830;2023-07-29T09:57:13;22.70;79.60
14733;DHT22;7457;50.960;6.830;2023-07-29T09:59:39;23.20;79.80
14733;DHT22;7457;50.960;6.830;2023-07-29T10:02:09;23.80;80.30
14733;DHT22;7457;50.960;6.830;2023-07-29T10:04:38;24.50;76.60
14733;DHT22;7457;50.960;6.830;2023-07-29T10:07:05;24.90;74.70
14733;DHT22;7457;50.960;6.830;2023-07-29T10:09:31;25.00;73.50
14733;DHT22;7457;50.960;6.830;2023-07-29T10:11:58;24.80;72.60
14733;DHT22;7457;50.960;6.830;2023-07-29T10:14:27;24.50;72.30
14733;DHT22;7457;50.960;6.830;2023-07-29T10:16:53;23.80;72.20
14733;DHT22;7457;50.960;6.830;2023-07-29T10:29:19;22.10;75.00
14733;DHT22;7457;50.960;6.830;2023-07-29T10:31:47;21.90;76.00
14733;DHT22;7457;50.960;6.830;2023-07-29T10:34:13;21.70;77.10
14733;DHT22;7457;50.960;6.830;2023-07-29T10:36:40;21.60;77.80
14733;DHT22;7457;50.960;6.830;2023-07-29T10:39:07;21.40;78.60
14733;DHT22;7457;50.960;6.830;2023-07-29T10:47:14;21.10;80.20
14733;DHT22;7457;50.960;6.830;2023-07-29T10:49:50;21.00;80.20
14733;DHT22;7457;50.960;6.830;2023-07-29T10:52:31;21.00;80.80
14733;DHT22;7457;50.960;6.830;2023-07-29T10:54:58;21.00;80.70
14733;DHT22;7457;50.960;6.830;2023-07-29T10:57:34;21.00;80.90
14733;DHT22;7457;50.960;6.830;2023-07-29T11:00:01;21.00;81.20
14733;DHT22;7457;50.960;6.830;2023-07-29T11:02:37;21.10;81.70
14733;DHT22;7457;50.960;6.830;2023-07-29T11:05:08;21.20;82.00
14733;DHT22;7457;50.960;6.830;2023-07-29T11:07:48;21.40;81.80
14733;DHT22;7457;50.960;6.830;2023-07-29T11:10:14;21.70;81.20
14733;DHT22;7457;50.960;6.830;2023-07-29T11:12:44;21.80;79.80
14733;DHT22;7457;50.960;6.830;2023-07-29T11:20:11;21.70;79.10
14733;DHT22;7457;50.960;6.830;2023-07-29T11:22:38;21.60;79.40
14733;DHT22;7457;50.960;6.830;2023-07-29T11:25:04;21.60;79.70
14733;DHT22;7457;50.960;6.830;2023-07-29T11:27:31;21.60;79.70
14733;DHT22;7457;50.960;6.830;2023-07-29T11:29:58;21.60;79.90
14733;DHT22;7457;50.960;6.830;2023-07-29T11:32:24;21.60;79.90
14733;DHT22;7457;50.960;6.830;2023-07-29T11:34:50;21.70;80.50
14733;DHT22;7457;50.960;6.830;2023-07-29T11:37:16;21.80;81.20
14733;DHT22;7457;50.960;6.830;2023-07-29T11:39:44;22.00;81.10
14733;DHT22;7457;50.960;6.830;2023-07-29T11:42:12;22.30;80.40
14733;DHT22;7457;50.960;6.830;2023-07-29T11:44:38;22.50;79.00
14733;DHT22;7457;50.960;6.830;2023-07-29T11:47:11;22.60;77.40
14733;DHT22;7457;50.960;6.830;2023-07-29T11:49:40;22.70;77.30
14733;DHT22;7457;50.960;6.830;2023-07-29T11:54:35;23.20;76.40
14733;DHT22;7457;50.960;6.830;2023-07-29T11:57:07;23.40;77.80
14733;DHT22;7457;50.960;6.830;2023-07-29T11:59:37;23.90;77.50
14733;DHT22;7457;50.960;6.830;2023-07-29T12:02:10;24.50;74.90
14733;DHT22;7457;50.960;6.830;2023-07-29T12:04:38;25.10;72.10
14733;DHT22;7457;50.960;6.830;2023-07-29T12:07:04;25.30;69.80
14733;DHT22;7457;50.960;6.830;2023-07-29T12:09:30;25.50;69.30
14733;DHT22;7457;50.960;6.830;2023-07-29T12:11:56;25.80;70.50
14733;DHT22;7457;50.960;6.830;2023-07-29T12:14:22;26.20;69.80
14733;DHT22;7457;50.960;6.830;2023-07-29T12:16:51;26.60;69.90
14733;DHT22;7457;50.960;6.830;2023-07-29T12:19:17;26.80;67.30
14733;DHT22;7457;50.960;6.830;2023-07-29T12:21:44;27.00;65.10
14733;DHT22;7457;50.960;6.830;2023-07-29T12:24:12;26.90;65.00
14733;DHT22;7457;50.960;6.830;2023-07-29T12:26:37;26.80;65.10
14733;DHT22;7457;50.960;6.830;2023-07-29T12:29:17;26.50;65.00
14733;DHT22;7457;50.960;6.830;2023-07-29T12:31:45;26.40;65.20
14733;DHT22;7457;50.960;6.830;2023-07-29T12:34:20;26.20;64.10
14733;DHT22;7457;50.960;6.830;2023-07-29T12:36:51;26.10;64.50
14733;DHT22;7457;50.960;6.830;2023-07-29T12:41:47;26.00;66.40
14733;DHT22;7457;50.960;6.830;2023-07-29T12:58:49;24.00;68.80
14733;DHT22;7457;50.960;6.830;2023-07-29T13:01:15;24.00;70.20
14733;DHT22;7457;50.960;6.830;2023-07-29T13:03:45;24.20;70.60
14733;DHT22;7457;50.960;6.830;2023-07-29T13:06:11;24.30;69.20
14733;DHT22;7457;50.960;6.830;2023-07-29T13:08:36;24.30;69.10
14733;DHT22;7457;50.960;6.830;2023-07-29T13:11:03;24.10;69.10
14733;DHT22;7457;50.960;6.830;2023-07-29T13:13:29;24.10;69.20
14733;DHT22;7457;50.960;6.830;2023-07-29T13:15:54;23.80;69.20
14733;DHT22;7457;50.960;6.830;2023-07-29T13:18:21;23.80;69.10
14733;DHT22;7457;50.960;6.830;2023-07-29T13:20:46;23.50;69.10
14733;DHT22;7457;50.960;6.830;2023-07-29T13:23:12;23.30;69.70
14733;DHT22;7457;50.960;6.830;2023-07-29T13:25:38;23.00;69.70
14733;DHT22;7457;50.960;6.830;2023-07-29T13:28:03;22.80;70.20
14733;DHT22;7457;50.960;6.830;2023-07-29T13:42:40;21.30;75.80
14733;DHT22;7457;50.960;6.830;2023-07-29T13:45:06;21.30;76.50
14733;DHT22;7457;50.960;6.830;2023-07-29T13:47:31;21.00;77.80
14733;DHT22;7457;50.960;6.830;2023-07-29T13:49:57;20.80;79.00
14733;DHT22;7457;50.960;6.830;2023-07-29T13:52:23;20.60;80.00
14733;DHT22;7457;50.960;6.830;2023-07-29T13:54:48;20.40;81.20
14733;DHT22;7457;50.960;6.830;2023-07-29T13:57:14;20.30;82.50
14733;DHT22;7457;50.960;6.830;2023-07-29T13:59:39;20.20;83.90
14733;DHT22;7457;50.960;6.830;2023-07-29T14:02:05;20.20;85.00
14733;DHT22;7457;50.960;6.830;2023-07-29T14:04:32;20.20;86.10
14733;DHT22;7457;50.960;6.830;2023-07-29T14:06:58;20.30;86.70
14733;DHT22;7457;50.960;6.830;2023-07-29T14:19:08;21.10;88.30
14733;DHT22;7457;50.960;6.830;2023-07-29T14:21:34;21.30;88.00
14733;DHT22;7457;50.960;6.830;2023-07-29T14:24:00;21.50;89.00
14733;DHT22;7457;50.960;6.830;2023-07-29T14:26:26;21.70;88.20
14733;DHT22;7457;50.960;6.830;2023-07-29T14:28:51;22.00;88.00
14733;DHT22;7457;50.960;6.830;2023-07-29T14:31:17;22.30;88.00
14733;DHT22;7457;50.960;6.830;2023-07-29T14:33:43;22.60;87.90
14733;DHT22;7457;50.960;6.830;2023-07-29T14:36:09;22.80;86.90
14733;DHT22;7457;50.960;6.830;2023-07-29T14:38:36;22.90;85.50
14733;DHT22;7457;50.960;6.830;2023-07-29T14:41:02;22.70;84.30
14733;DHT22;7457;50.960;6.830;2023-07-29T14:43:28;22.70;84.20
14733;DHT22;7457;50.960;6.830;2023-07-29T14:45:53;22.50;83.40
14733;DHT22;7457;50.960;6.830;2023-07-29T14:48:19;22.20;83.80
14733;DHT22;7457;50.960;6.830;2023-07-29T14:50:45;22.00;84.20
14733;DHT22;7457;50.960;6.830;2023-07-29T14:53:10;21.80;84.70
14733;DHT22;7457;50.960;6.830;2023-07-29T14:55:37;21.70;85.30
14733;DHT22;7457;50.960;6.830;2023-07-29T14:58:03;21.60;85.60
14733;DHT22;7457;50.960;6.830;2023-07-29T15:00:29;21.50;85.90
14733;DHT22;7457;50.960;6.830;2023-07-29T15:02:54;21.40;86.00
14733;DHT22;7457;50.960;6.830;2023-07-29T15:15:09;20.90;87.90
14733;DHT22;7457;50.960;6.830;2023-07-29T15:17:35;20.90;88.10
14733;DHT22;7457;50.960;6.830;2023-07-29T15:20:02;21.00;89.30
14733;DHT22;7457;50.960;6.830;2023-07-29T15:22:29;21.20;89.30
14733;DHT22;7457;50.960;6.830;2023-07-29T15:24:55;21.50;88.90
14733;DHT22;7457;50.960;6.830;2023-07-29T15:27:20;21.80;88.10
14733;DHT22;7457;50.960;6.830;2023-07-29T15:29:46;21.90;86.50
14733;DHT22;7457;50.960;6.830;2023-07-29T15:32:12;22.00;86.00
14733;DHT22;7457;50.960;6.830;2023-07-29T15:34:37;22.00;85.30
14733;DHT22;7457;50.960;6.830;2023-07-29T15:37:03;22.10;85.30
14733;DHT22;7457;50.960;6.830;2023-07-29T15:39:29;22.10;84.80
14733;DHT22;7457;50.960;6.830;2023-07-29T15:41:56;22.20;84.50
14733;DHT22;7457;50.960;6.830;2023-07-29T15:44:21;22.10;84.30
14733;DHT22;7457;50.960;6.830;2023-07-29T15:46:47;22.10;84.20
14733;DHT22;7457;50.960;6.830;2023-07-29T15:49:13;21.90;84.00
14733;DHT22;7457;50.960;6.830;2023-07-29T15:51:38;21.80;84.40
14733;DHT22;7457;50.960;6.830;2023-07-29T15:54:04;21.60;84.80
14733;DHT22;7457;50.960;6.830;2023-07-29T15:56:30;21.50;85.30
14733;DHT22;7457;50.960;6.830;2023-07-29T15:58:56;21.40;85.70
14733;DHT22;7457;50.960;6.830;2023-07-29T16:01:22;21.40;85.80
14733;DHT22;7457;50.960;6.830;2023-07-29T16:03:48;21.30;86.00
14733;DHT22;7457;50.960;6.830;2023-07-29T16:06:14;21.20;86.30
14733;DHT22;7457;50.960;6.830;2023-07-29T16:08:40;21.10;86.60
14733;DHT22;7457;50.960;6.830;2023-07-29T16:11:06;21.10;87.00
14733;DHT22;7457;50.960;6.830;2023-07-29T16:13:32;21.00;87.60
14733;DHT22;7457;50.960;6.830;2023-07-29T16:15:57;21.00;88.10
14733;DHT22;7457;50.960;6.830;2023-07-29T16:18:24;21.00;88.60
14733;DHT22;7457;50.960;6.830;2023-07-29T16:20:50;21.00;88.90
14733;DHT22;7457;50.960;6.830;2023-07-29T16:23:16;21.00;89.50
14733;DHT22;7457;50.960;6.830;2023-07-29T16:25:42;21.10;90.30
14733;DHT22;7457;50.960;6.830;2023-07-29T16:28:08;21.20;90.80
14733;DHT22;7457;50.960;6.830;2023-07-29T16:30:33;21.40;90.80
14733;DHT22;7457;50.960;6.830;2023-07-29T16:32:59;21.60;89.90
14733;DHT22;7457;50.960;6.830;2023-07-29T16:35:25;21.70;89.10
14733;DHT22;7457;50.960;6.830;2023-07-29T16:37:50;21.70;88.70
14733;DHT22;7457;50.960;6.830;2023-07-29T16:40:17;21.70;88.00
14733;DHT22;7457;50.960;6.830;2023-07-29T16:42:42;21.70;87.70
14733;DHT22;7457;50.960;6.830;2023-07-29T16:45:09;21.70;87.70
14733;DHT22;7457;50.960;6.830;2023-07-29T16:47:35;21.60;87.40
14733;DHT22;7457;50.960;6.830;2023-07-29T16:50:01;21.60;86.70
14733;DHT22;7457;50.960;6.830;2023-07-29T16:52:26;21.50;86.00